createdAt,value
2022-12-12T00:01:35.540Z,100644.41
2022-12-12T00:04:03.464Z,100640.75
2022-12-12T00:06:31.389Z,100637.66
2022-12-12T00:08:58.900Z,100639.28
2022-12-12T00:11:28.173Z,100640.41
2022-12-12T00:13:56.067Z,100642.44
2022-12-12T00:16:24.318Z,100650.06
2022-12-12T00:18:52.232Z,100646.03
2022-12-12T00:21:21.859Z,100645.69
2022-12-12T00:23:49.368Z,100650.47
2022-12-12T00:26:20.626Z,100646.03
2022-12-12T00:28:49.810Z,100643.72
2022-12-12T00:31:17.776Z,100651.44
2022-12-12T00:33:47.923Z,100653.63
2022-12-12T00:36:18.359Z,100646.97
2022-12-12T00:38:45.869Z,100639.22
2022-12-12T00:41:13.351Z,100641.69
2022-12-12T00:43:40.834Z,100645.34
2022-12-12T00:46:09.960Z,100643.31
2022-12-12T00:48:37.475Z,100642.88
2022-12-12T00:51:08.634Z,100648.69
2022-12-12T00:53:36.207Z,100650.81
2022-12-12T00:56:03.723Z,100646.72
2022-12-12T00:58:31.687Z,100651.00
2022-12-12T01:01:06.138Z,100654.47
2022-12-12T01:03:35.887Z,100660.56
2022-12-12T01:06:03.438Z,100656.84
2022-12-12T01:08:31.051Z,100660.94
2022-12-12T01:10:58.826Z,100665.22
2022-12-12T01:13:26.744Z,100667.31
2022-12-12T01:15:54.380Z,100660.75
2022-12-12T01:18:22.214Z,100658.94
2022-12-12T01:20:51.023Z,100668.16
2022-12-12T01:23:18.483Z,100670.34
2022-12-12T01:25:45.942Z,100666.50
2022-12-12T01:28:13.558Z,100667.31
2022-12-12T01:30:41.159Z,100668.16
2022-12-12T01:33:08.635Z,100673.88
2022-12-12T01:35:36.236Z,100671.41
2022-12-12T01:38:05.072Z,100676.09
2022-12-12T01:40:32.566Z,100679.91
2022-12-12T01:43:00.619Z,100686.03
2022-12-12T01:46:20.045Z,100685.66
2022-12-12T01:48:51.567Z,100684.47
2022-12-12T01:51:21.619Z,100675.25
2022-12-12T01:53:52.479Z,100685.66
2022-12-12T01:56:22.192Z,100686.03
2022-12-12T01:58:50.815Z,100679.47
2022-12-12T02:01:18.854Z,100685.22
2022-12-12T02:03:46.843Z,100677.81
2022-12-12T02:06:17.155Z,100673.97
2022-12-12T02:08:46.191Z,100677.44
2022-12-12T02:11:15.062Z,100668.88
2022-12-12T02:13:42.751Z,100666.25
2022-12-12T02:16:15.908Z,100677.81
2022-12-12T02:18:50.360Z,100682.28
2022-12-12T02:21:23.178Z,100683.41
2022-12-12T02:24:21.680Z,100674.28
2022-12-12T02:27:16.467Z,100672.16
2022-12-12T02:30:19.754Z,100670.16
2022-12-12T02:32:57.220Z,100670.16
2022-12-12T02:35:31.506Z,100665.50
2022-12-12T02:38:03.899Z,100671.97
2022-12-12T02:40:35.778Z,100669.34
2022-12-12T02:43:10.352Z,100676.25
2022-12-12T02:45:40.423Z,100672.59
2022-12-12T02:48:13.713Z,100683.56
2022-12-12T02:50:41.809Z,100671.63
2022-12-12T02:53:09.709Z,100680.72
2022-12-12T02:55:37.290Z,100676.53
2022-12-12T02:58:06.006Z,100680.81
2022-12-12T03:00:36.319Z,100676.72
2022-12-12T03:03:34.735Z,100684.47
2022-12-12T03:06:39.312Z,100680.03
2022-12-12T03:09:15.034Z,100672.06
2022-12-12T03:11:52.232Z,100673.41
2022-12-12T03:14:24.723Z,100669.16
2022-12-12T03:17:01.002Z,100673.44
2022-12-12T03:19:31.632Z,100663.22
2022-12-12T03:22:01.411Z,100672.59
2022-12-12T03:24:31.696Z,100672.06
2022-12-12T03:27:01.781Z,100664.66
2022-12-12T03:29:32.125Z,100661.03
2022-12-12T03:32:04.575Z,100668.59
2022-12-12T03:34:37.834Z,100660.03
2022-12-12T03:37:08.907Z,100658.41
2022-12-12T03:39:40.120Z,100657.56
2022-12-12T03:42:13.131Z,100660.38
2022-12-12T03:44:44.081Z,100661.22
2022-12-12T03:47:14.188Z,100670.16
2022-12-12T03:49:45.447Z,100676.00
2022-12-12T03:52:16.380Z,100667.22
2022-12-12T03:54:47.071Z,100666.13
2022-12-12T03:57:18.143Z,100674.19
2022-12-12T03:59:47.910Z,100672.06
2022-12-12T04:02:18.077Z,100675.81
2022-12-12T04:04:49.610Z,100671.06
2022-12-12T04:07:21.180Z,100682.53
2022-12-12T04:10:06.311Z,100679.38
2022-12-12T04:12:56.467Z,100685.47
2022-12-12T04:15:46.751Z,100685.56
2022-12-12T04:18:19.421Z,100685.19
2022-12-12T04:21:15.054Z,100681.00
2022-12-12T04:23:51.712Z,100688.09
2022-12-12T04:26:40.388Z,100689.50
2022-12-12T04:29:23.318Z,100696.78
2022-12-12T04:31:54.475Z,100695.41
2022-12-12T04:34:27.375Z,100691.75
2022-12-12T04:36:56.607Z,100698.06
2022-12-12T04:39:24.876Z,100700.88
2022-12-12T04:41:53.531Z,100700.72
2022-12-12T04:44:22.367Z,100705.81
2022-12-12T04:46:52.803Z,100693.59
2022-12-12T04:49:23.142Z,100704.72
2022-12-12T04:51:54.391Z,100701.16
2022-12-12T04:54:26.536Z,100696.59
2022-12-12T04:56:56.584Z,100702.34
2022-12-12T04:59:24.173Z,100708.53
2022-12-12T05:01:55.625Z,100700.78
2022-12-12T05:04:26.523Z,100704.88
2022-12-12T05:06:57.687Z,100707.91
2022-12-12T05:09:26.749Z,100703.25
2022-12-12T05:11:54.317Z,100707.63
2022-12-12T05:14:21.801Z,100710.56
2022-12-12T05:16:52.521Z,100702.25
2022-12-12T05:19:20.038Z,100712.09
2022-12-12T05:21:47.470Z,100706.78
2022-12-12T05:24:14.915Z,100709.91
2022-12-12T05:26:43.747Z,100705.78
2022-12-12T05:29:11.211Z,100709.81
2022-12-12T05:31:38.676Z,100708.91
2022-12-12T05:34:06.172Z,100707.63
2022-12-12T05:36:33.834Z,100716.19
2022-12-12T05:39:01.308Z,100709.56
2022-12-12T05:41:28.790Z,100713.38
2022-12-12T05:43:57.716Z,100718.22
2022-12-12T05:46:25.496Z,100719.50
2022-12-12T05:48:52.962Z,100719.00
2022-12-12T05:51:21.285Z,100711.00
2022-12-12T05:53:48.719Z,100716.75
2022-12-12T05:56:16.182Z,100718.94
2022-12-12T05:58:43.977Z,100718.81
2022-12-12T06:01:12.798Z,100718.66
2022-12-12T06:03:40.364Z,100725.91
2022-12-12T06:06:07.916Z,100723.75
2022-12-12T06:08:35.479Z,100720.91
2022-12-12T06:11:07.460Z,100722.81
2022-12-12T06:13:35.211Z,100730.09
2022-12-12T06:16:07.228Z,100726.66
2022-12-12T06:18:36.203Z,100730.75
2022-12-12T06:21:05.183Z,100738.03
2022-12-12T06:23:32.630Z,100739.75
2022-12-12T06:26:00.209Z,100742.97
2022-12-12T06:28:27.626Z,100747.91
2022-12-12T06:30:55.674Z,100751.63
2022-12-12T06:33:23.147Z,100745.97
2022-12-12T06:36:00.136Z,100751.63
2022-12-12T06:38:27.918Z,100749.78
2022-12-12T06:40:55.364Z,100750.16
2022-12-12T06:43:22.799Z,100754.44
2022-12-12T06:45:50.415Z,100752.78
2022-12-12T06:48:17.871Z,100760.91
2022-12-12T06:50:46.154Z,100759.97
2022-12-12T06:53:14.964Z,100761.72
2022-12-12T06:55:42.989Z,100758.00
2022-12-12T06:58:10.918Z,100768.38
2022-12-12T07:00:38.442Z,100761.06
2022-12-12T07:03:05.993Z,100766.91
2022-12-12T07:05:33.530Z,100766.22
2022-12-12T07:08:02.711Z,100764.75
2022-12-12T07:10:32.262Z,100759.47
2022-12-12T07:12:59.679Z,100772.66
2022-12-12T07:15:27.210Z,100771.81
2022-12-12T07:17:54.837Z,100774.84
2022-12-12T07:20:22.372Z,100782.63
2022-12-12T07:22:49.826Z,100771.34
2022-12-12T07:25:17.379Z,100781.56
2022-12-12T07:27:46.163Z,100783.50
2022-12-12T07:30:13.982Z,100786.16
2022-12-12T07:32:41.433Z,100783.69
2022-12-12T07:35:09.773Z,100781.72
2022-12-12T07:37:37.239Z,100787.00
2022-12-12T07:40:05.269Z,100787.50
2022-12-12T07:42:32.736Z,100795.28
2022-12-12T07:45:01.509Z,100789.53
2022-12-12T07:47:28.970Z,100793.31
2022-12-12T07:49:56.421Z,100781.22
2022-12-12T07:52:23.863Z,100785.22
2022-12-12T07:54:51.312Z,100789.69
2022-12-12T07:57:18.790Z,100788.03
2022-12-12T07:59:46.215Z,100781.63
2022-12-12T08:02:15.057Z,100793.03
2022-12-12T08:04:42.670Z,100790.25
2022-12-12T08:07:10.159Z,100794.00
2022-12-12T08:09:38.278Z,100790.41
2022-12-12T08:12:07.215Z,100797.47
2022-12-12T08:14:34.979Z,100794.69
2022-12-12T08:17:03.894Z,100788.41
2022-12-12T08:19:33.041Z,100798.94
2022-12-12T08:22:00.558Z,100792.63
2022-12-12T08:24:29.811Z,100806.47
2022-12-12T08:26:57.424Z,100802.34
2022-12-12T08:29:24.861Z,100802.31
2022-12-12T08:31:52.552Z,100802.78
2022-12-12T08:34:20.051Z,100804.09
2022-12-12T08:36:49.194Z,100808.53
2022-12-12T08:39:17.715Z,100800.72
2022-12-12T08:41:48.463Z,100802.66
2022-12-12T08:44:16.994Z,100803.66
2022-12-12T08:46:44.718Z,100805.69
2022-12-12T08:49:12.958Z,100805.69
2022-12-12T08:51:40.831Z,100810.72
2022-12-12T08:54:10.987Z,100820.38
2022-12-12T08:56:38.461Z,100814.66
2022-12-12T08:59:05.962Z,100819.63
2022-12-12T09:01:33.789Z,100817.13
2022-12-12T09:04:01.274Z,100814.41
2022-12-12T09:06:30.665Z,100818.81
2022-12-12T09:08:58.225Z,100822.88
2022-12-12T09:11:27.279Z,100826.00
2022-12-12T09:13:54.725Z,100819.66
2022-12-12T09:16:23.348Z,100834.00
2022-12-12T09:18:50.897Z,100833.88
2022-12-12T09:21:18.864Z,100827.31
2022-12-12T09:23:46.340Z,100820.31
2022-12-12T09:26:13.836Z,100828.06
2022-12-12T09:28:42.906Z,100824.44
2022-12-12T09:31:12.780Z,100821.78
2022-12-12T09:33:40.834Z,100822.25
2022-12-12T09:36:09.515Z,100825.53
2022-12-12T09:38:37.513Z,100827.19
2022-12-12T09:41:12.899Z,100829.09
2022-12-12T09:43:49.050Z,100829.78
2022-12-12T09:46:31.197Z,100820.13
2022-12-12T09:49:04.691Z,100827.19
2022-12-12T09:51:32.145Z,100822.13
2022-12-12T09:53:59.633Z,100836.78
2022-12-12T09:56:34.546Z,100832.28
2022-12-12T09:59:07.739Z,100840.09
2022-12-12T10:01:39.157Z,100838.25
2022-12-12T10:04:13.886Z,100833.59
2022-12-12T10:06:46.459Z,100834.78
2022-12-12T10:09:30.135Z,100833.56
2022-12-12T10:11:58.620Z,100824.59
2022-12-12T10:14:34.343Z,100829.31
2022-12-12T10:17:03.727Z,100823.94
2022-12-12T10:19:33.809Z,100819.19
2022-12-12T10:22:05.736Z,100825.94
2022-12-12T10:24:37.776Z,100821.38
2022-12-12T10:27:10.491Z,100823.94
2022-12-12T10:29:41.632Z,100829.91
2022-12-12T10:32:14.011Z,100831.47
2022-12-12T10:34:52.952Z,100832.84
2022-12-12T10:37:35.051Z,100827.63
2022-12-12T10:40:12.384Z,100832.47
2022-12-12T10:42:42.667Z,100824.69
2022-12-12T10:45:25.464Z,100830.25
2022-12-12T10:47:53.027Z,100829.09
2022-12-12T10:50:26.524Z,100820.25
2022-12-12T10:52:54.014Z,100823.06
2022-12-12T10:55:24.274Z,100818.81
2022-12-12T10:58:03.551Z,100821.75
2022-12-12T11:00:34.458Z,100817.78
2022-12-12T11:03:12.961Z,100815.97
2022-12-12T11:05:42.000Z,100826.00
2022-12-12T11:08:20.698Z,100815.88
2022-12-12T11:11:03.731Z,100816.84
2022-12-12T11:13:32.218Z,100828.25
2022-12-12T11:16:03.359Z,100821.47
2022-12-12T11:18:30.907Z,100819.66
2022-12-12T11:21:06.615Z,100820.66
2022-12-12T11:23:35.086Z,100819.34
2022-12-12T11:26:04.543Z,100816.09
2022-12-12T11:28:34.679Z,100817.03
2022-12-12T11:31:07.976Z,100821.47
2022-12-12T11:33:36.880Z,100815.41
2022-12-12T11:36:06.473Z,100815.94
2022-12-12T11:38:39.163Z,100813.19
2022-12-12T11:41:08.214Z,100812.28
2022-12-12T11:43:36.794Z,100800.31
2022-12-12T11:46:08.970Z,100813.75
2022-12-12T11:48:44.966Z,100805.97
2022-12-12T11:51:12.459Z,100802.88
2022-12-12T11:53:42.366Z,100804.38
2022-12-12T11:56:32.155Z,100795.41
2022-12-12T11:59:08.838Z,100797.31
2022-12-12T12:01:46.767Z,100793.75
2022-12-12T12:04:25.007Z,100793.84
2022-12-12T12:07:02.698Z,100799.81
2022-12-12T12:09:38.092Z,100799.81
2022-12-12T12:12:10.141Z,100797.88
2022-12-12T12:15:02.027Z,100800.03
2022-12-12T12:17:48.262Z,100808.31
2022-12-12T12:20:22.748Z,100801.56
2022-12-12T12:23:00.615Z,100803.16
2022-12-12T12:25:36.602Z,100797.16
2022-12-12T12:28:32.034Z,100795.97
2022-12-12T12:31:04.017Z,100798.34
2022-12-12T12:33:43.310Z,100794.34
2022-12-12T12:36:21.530Z,100783.56
2022-12-12T12:38:58.175Z,100787.63
2022-12-12T12:41:39.408Z,100788.97
2022-12-12T12:44:18.871Z,100790.91
2022-12-12T12:46:53.053Z,100787.28
2022-12-12T12:49:24.568Z,100789.56
2022-12-12T12:51:54.951Z,100788.88
2022-12-12T12:54:25.010Z,100784.97
2022-12-12T12:56:56.710Z,100787.41
2022-12-12T12:59:28.471Z,100785.56
2022-12-12T13:01:56.665Z,100788.50
2022-12-12T13:04:27.780Z,100781.41
2022-12-12T13:06:59.827Z,100785.06
2022-12-12T13:09:33.513Z,100787.78
2022-12-12T13:12:03.719Z,100790.97
2022-12-12T13:14:39.306Z,100793.34
2022-12-12T13:17:09.117Z,100788.47
2022-12-12T13:19:40.315Z,100795.94
2022-12-12T13:22:13.801Z,100794.09
2022-12-12T13:24:47.218Z,100803.94
2022-12-12T13:27:20.688Z,100802.31
2022-12-12T13:29:50.344Z,100803.31
2022-12-12T13:32:49.247Z,100800.78
2022-12-12T13:35:20.336Z,100804.66
2022-12-12T13:37:50.003Z,100811.38
2022-12-12T13:40:29.432Z,100810.91
2022-12-12T13:43:01.649Z,100810.06
2022-12-12T13:45:53.958Z,100811.00
2022-12-12T13:48:51.837Z,100809.53
2022-12-12T13:51:37.217Z,100806.25
2022-12-12T13:54:38.179Z,100810.53
2022-12-12T13:57:13.491Z,100807.31
2022-12-12T14:00:29.839Z,100811.66
2022-12-12T14:03:17.188Z,100803.59
2022-12-12T14:05:45.683Z,100799.31
2022-12-12T14:08:23.930Z,100803.44
2022-12-12T14:11:00.660Z,100805.50
2022-12-12T14:13:45.610Z,100811.59
2022-12-12T14:16:22.648Z,100811.66
2022-12-12T14:19:07.849Z,100810.25
2022-12-12T14:21:41.160Z,100818.84
2022-12-12T14:24:48.546Z,100815.50
2022-12-12T14:27:17.470Z,100821.41
2022-12-12T14:29:45.698Z,100831.41
2022-12-12T14:32:38.179Z,100824.47
2022-12-12T14:35:20.363Z,100821.38
2022-12-12T14:37:55.483Z,100824.78
2022-12-12T14:40:24.039Z,100821.19
2022-12-12T14:43:18.759Z,100825.50
2022-12-12T14:45:54.264Z,100814.81
2022-12-12T14:48:24.161Z,100820.50
2022-12-12T14:51:02.647Z,100819.94
2022-12-12T14:53:33.743Z,100823.34
2022-12-12T14:56:03.194Z,100821.53
2022-12-12T14:58:33.351Z,100828.84
2022-12-12T15:01:02.442Z,100818.88
2022-12-12T15:03:33.202Z,100821.53
2022-12-12T15:06:28.299Z,100815.41
2022-12-12T15:08:56.977Z,100819.06
2022-12-12T15:11:26.327Z,100810.94
2022-12-12T15:13:56.784Z,100811.78
2022-12-12T15:16:29.132Z,100810.81
2022-12-12T15:18:57.455Z,100820.91
2022-12-12T15:21:24.923Z,100825.22
2022-12-12T15:23:52.455Z,100827.00
2022-12-12T15:26:21.692Z,100826.34
2022-12-12T15:28:49.833Z,100825.69
2022-12-12T15:31:19.175Z,100827.88
2022-12-12T15:33:47.877Z,100827.72
2022-12-12T15:36:19.391Z,100824.06
2022-12-12T15:38:47.083Z,100827.53
2022-12-12T15:41:15.203Z,100835.47
2022-12-12T15:43:43.083Z,100833.16
2022-12-12T15:46:15.066Z,100838.47
2022-12-12T15:48:44.284Z,100836.38
2022-12-12T15:51:12.791Z,100833.88
2022-12-12T15:53:41.889Z,100839.34
2022-12-12T15:56:27.635Z,100838.34
2022-12-12T15:59:15.884Z,100840.34
2022-12-12T16:01:43.679Z,100842.16
2022-12-12T16:04:31.883Z,100843.34
2022-12-12T16:07:15.584Z,100843.63
2022-12-12T16:09:58.554Z,100835.41
2022-12-12T16:12:57.779Z,100828.75
2022-12-12T16:15:36.594Z,100829.59
2022-12-12T16:18:07.112Z,100831.59
2022-12-12T16:20:35.115Z,100827.13
2022-12-12T16:23:11.609Z,100821.38
2022-12-12T16:25:39.713Z,100827.56
2022-12-12T16:28:24.703Z,100820.53
2022-12-12T16:30:56.170Z,100826.19
2022-12-12T16:33:27.888Z,100822.44
2022-12-12T16:35:55.602Z,100825.06
2022-12-12T16:38:23.260Z,100822.59
2022-12-12T16:40:52.744Z,100834.66
2022-12-12T16:43:22.511Z,100838.47
2022-12-12T16:45:51.124Z,100832.25
2022-12-12T16:48:20.208Z,100831.06
2022-12-12T16:50:48.237Z,100832.75
2022-12-12T16:53:16.111Z,100835.06
2022-12-12T16:55:46.606Z,100831.25
2022-12-12T16:58:14.182Z,100832.25
2022-12-12T17:00:43.143Z,100828.59
2022-12-12T17:03:13.178Z,100823.91
2022-12-12T17:05:42.534Z,100830.19
2022-12-12T17:08:10.090Z,100832.34
2022-12-12T17:10:37.991Z,100834.50
2022-12-12T17:13:06.443Z,100838.19
2022-12-12T17:15:33.987Z,100829.94
2022-12-12T17:18:02.793Z,100830.63
2022-12-12T17:20:37.647Z,100837.56
2022-12-12T17:25:50.778Z,100834.91
2022-12-12T17:28:19.769Z,100834.28
2022-12-12T17:30:49.582Z,100836.59
2022-12-12T17:33:18.744Z,100832.00
2022-12-12T17:35:46.581Z,100830.66
2022-12-12T17:38:16.315Z,100833.84
2022-12-12T17:40:44.667Z,100830.22
2022-12-12T17:43:12.125Z,100831.22
2022-12-12T17:45:39.626Z,100834.19
2022-12-12T17:48:07.222Z,100833.31
2022-12-12T17:50:41.349Z,100832.56
2022-12-12T17:53:09.322Z,100834.38
2022-12-12T17:55:53.975Z,100833.09
2022-12-12T17:58:29.424Z,100834.72
2022-12-12T18:00:57.344Z,100841.66
2022-12-12T18:03:24.818Z,100844.44
2022-12-12T18:05:53.675Z,100841.50
2022-12-12T18:08:21.259Z,100839.53
2022-12-12T18:10:48.754Z,100846.63
2022-12-12T18:13:16.206Z,100851.44
2022-12-12T18:15:44.404Z,100846.97
2022-12-12T18:18:11.857Z,100836.75
2022-12-12T18:20:39.783Z,100843.34
2022-12-12T18:23:08.843Z,100844.66
2022-12-12T18:25:37.388Z,100845.84
2022-12-12T18:28:04.890Z,100851.13
2022-12-12T18:30:32.399Z,100847.00
2022-12-12T18:33:03.168Z,100841.72
2022-12-12T18:35:30.830Z,100846.00
2022-12-12T18:37:58.330Z,100843.03
2022-12-12T18:40:27.168Z,100836.94
2022-12-12T18:42:54.649Z,100839.09
2022-12-12T18:45:23.843Z,100840.56
2022-12-12T18:47:51.343Z,100838.94
2022-12-12T18:50:18.898Z,100838.28
2022-12-12T18:52:47.381Z,100836.81
2022-12-12T18:55:14.849Z,100847.69
2022-12-12T18:57:43.618Z,100848.53
2022-12-12T19:00:12.481Z,100842.25
2022-12-12T19:02:40.485Z,100842.28
2022-12-12T19:05:13.107Z,100845.91
2022-12-12T19:07:40.689Z,100843.59
2022-12-12T19:10:08.988Z,100839.66
2022-12-12T19:12:36.476Z,100846.28
2022-12-12T19:15:17.822Z,100843.47
2022-12-12T19:17:45.647Z,100847.06
2022-12-12T19:20:13.799Z,100844.97
2022-12-12T19:22:46.282Z,100853.88
2022-12-12T19:25:14.881Z,100850.56
2022-12-12T19:27:42.385Z,100854.88
2022-12-12T19:30:13.452Z,100855.69
2022-12-12T19:32:41.262Z,100851.41
2022-12-12T19:35:09.896Z,100856.50
2022-12-12T19:37:38.127Z,100855.84
2022-12-12T19:40:06.593Z,100852.56
2022-12-12T19:42:34.043Z,100853.88
2022-12-12T19:45:01.538Z,100850.91
2022-12-12T19:47:30.322Z,100851.25
2022-12-12T19:49:57.759Z,100865.06
2022-12-12T19:52:25.349Z,100856.34
2022-12-12T19:54:52.810Z,100851.41
2022-12-12T19:57:20.945Z,100851.56
2022-12-12T19:59:50.164Z,100847.28
2022-12-12T20:02:17.686Z,100851.25
2022-12-12T20:04:46.671Z,100849.59
2022-12-12T20:07:14.127Z,100855.34
2022-12-12T20:09:41.661Z,100855.72
2022-12-12T20:12:09.136Z,100860.81
2022-12-12T20:14:36.799Z,100850.91
2022-12-12T20:17:04.663Z,100855.53
2022-12-12T20:19:32.204Z,100860.81
2022-12-12T20:22:02.534Z,100871.38
2022-12-12T20:24:32.350Z,100866.63
2022-12-12T20:27:00.301Z,100878.13
2022-12-12T20:29:28.020Z,100877.16
2022-12-12T20:31:55.503Z,100884.91
2022-12-12T20:34:24.312Z,100878.16
2022-12-12T20:36:51.874Z,100878.00
2022-12-12T20:39:21.856Z,100881.94
2022-12-12T20:41:50.292Z,100881.63
2022-12-12T20:44:18.164Z,100880.63
2022-12-12T20:46:46.913Z,100884.91
2022-12-12T20:49:17.312Z,100876.34
2022-12-12T20:51:55.219Z,100881.28
2022-12-12T20:54:25.633Z,100886.75
2022-12-12T20:56:53.701Z,100881.28
2022-12-12T20:59:21.190Z,100875.34
2022-12-12T21:01:48.786Z,100870.53
2022-12-12T21:04:16.909Z,100874.34
2022-12-12T21:06:48.120Z,100879.94
2022-12-12T21:09:22.775Z,100872.88
2022-12-12T21:11:52.939Z,100878.13
2022-12-12T21:14:20.534Z,100867.78
2022-12-12T21:16:48.162Z,100862.16
2022-12-12T21:19:16.124Z,100866.59
2022-12-12T21:21:44.294Z,100868.72
2022-12-12T21:24:12.958Z,100870.06
2022-12-12T21:26:40.454Z,100860.50
2022-12-12T21:29:09.462Z,100863.13
2022-12-12T21:31:38.424Z,100861.66
2022-12-12T21:34:06.545Z,100866.09
2022-12-12T21:36:34.478Z,100868.56
2022-12-12T21:39:04.079Z,100878.97
2022-12-12T21:41:31.505Z,100880.78
2022-12-12T21:43:59.767Z,100886.03
2022-12-12T21:46:29.702Z,100876.47
2022-12-12T21:49:16.197Z,100881.91
2022-12-12T21:51:44.163Z,100877.63
2022-12-12T21:54:13.741Z,100871.50
2022-12-12T21:56:42.340Z,100881.22
2022-12-12T21:59:10.895Z,100883.19
2022-12-12T22:01:39.772Z,100889.47
2022-12-12T22:04:07.597Z,100885.84
2022-12-12T22:06:36.138Z,100881.56
2022-12-12T22:09:07.978Z,100881.22
2022-12-12T22:11:42.196Z,100875.94
2022-12-12T22:14:17.631Z,100875.63
2022-12-12T22:16:46.443Z,100873.66
2022-12-12T22:19:15.441Z,100868.03
2022-12-12T22:21:45.051Z,100874.13
2022-12-12T22:24:12.523Z,100862.94
2022-12-12T22:26:41.743Z,100863.44
2022-12-12T22:29:12.244Z,100858.47
2022-12-12T22:31:40.825Z,100863.44
2022-12-12T22:34:13.070Z,100849.25
2022-12-12T22:36:43.430Z,100847.28
2022-12-12T22:39:14.742Z,100850.25
2022-12-12T22:41:42.323Z,100853.22
2022-12-12T22:44:13.350Z,100857.34
2022-12-12T22:46:43.875Z,100864.09
2022-12-12T22:49:14.154Z,100861.78
2022-12-12T22:51:42.143Z,100852.88
2022-12-12T22:54:09.655Z,100848.75
2022-12-12T22:56:37.957Z,100842.00
2022-12-12T22:59:06.845Z,100844.63
2022-12-12T23:01:34.680Z,100845.28
2022-12-12T23:04:02.248Z,100857.75
2022-12-12T23:06:32.531Z,100852.50
2022-12-12T23:09:01.844Z,100847.06
2022-12-12T23:11:30.911Z,100851.31
2022-12-12T23:14:04.453Z,100852.13
2022-12-12T23:16:34.330Z,100853.13
2022-12-12T23:19:01.911Z,100849.34
2022-12-12T23:21:30.760Z,100843.56
2022-12-12T23:23:58.228Z,100847.00
2022-12-12T23:26:29.735Z,100838.31
2022-12-12T23:28:57.395Z,100841.41
2022-12-12T23:31:26.920Z,100854.41
2022-12-12T23:33:55.312Z,100850.13
2022-12-12T23:36:23.380Z,100852.81
2022-12-12T23:38:55.283Z,100847.81
2022-12-12T23:41:22.748Z,100855.69
2022-12-12T23:43:50.714Z,100858.00
2022-12-12T23:46:29.230Z,100851.78
2022-12-12T23:48:57.704Z,100852.59
2022-12-12T23:51:26.478Z,100850.59
2022-12-12T23:53:57.487Z,100844.97
2022-12-12T23:56:25.179Z,100844.97
2022-12-12T23:58:52.848Z,100858.00
